createdAt,value
2024-05-09T00:06:16.183Z,58.61
2024-05-09T00:16:23.154Z,59.00
2024-05-09T00:26:27.299Z,59.17
2024-05-09T00:36:31.522Z,59.52
2024-05-09T00:46:35.480Z,60.02
2024-05-09T00:56:40.166Z,60.46
2024-05-09T01:06:43.907Z,60.63
2024-05-09T01:16:47.736Z,61.09
2024-05-09T01:26:51.572Z,61.37
2024-05-09T01:36:55.344Z,61.52
2024-05-09T01:46:59.237Z,61.92
2024-05-09T01:57:03.630Z,62.32
2024-05-09T02:07:07.852Z,62.58
2024-05-09T02:17:11.738Z,62.93
2024-05-09T02:27:16.230Z,63.23
2024-05-09T02:37:20.250Z,63.81
2024-05-09T02:47:24.295Z,63.79
2024-05-09T02:57:28.191Z,63.98
2024-05-09T03:07:32.191Z,64.37
2024-05-09T03:17:36.558Z,64.51
2024-05-09T03:27:40.547Z,64.68
2024-05-09T03:37:44.864Z,64.90
2024-05-09T03:47:49.241Z,64.78
2024-05-09T03:57:53.743Z,64.12
2024-05-09T04:07:57.560Z,62.67
2024-05-09T04:18:05.811Z,61.16
2024-05-09T04:28:09.703Z,59.67
2024-05-09T04:38:14.665Z,58.39
2024-05-09T04:48:19.553Z,57.01
2024-05-09T04:58:23.425Z,55.86
2024-05-09T05:08:27.969Z,54.55
2024-05-09T05:18:35.447Z,53.17
2024-05-09T05:28:39.588Z,52.50
2024-05-09T05:38:44.856Z,51.97
2024-05-09T05:48:49.448Z,51.37
2024-05-09T05:58:57.442Z,49.90
2024-05-09T06:09:01.306Z,49.28
2024-05-09T06:19:05.807Z,47.60
2024-05-09T06:29:10.424Z,48.63
2024-05-09T06:39:14.612Z,47.55
2024-05-09T06:49:19.168Z,46.33
2024-05-09T06:59:23.260Z,45.12
2024-05-09T07:09:30.329Z,44.73
2024-05-09T07:19:37.506Z,43.42
2024-05-09T07:29:41.952Z,43.10
2024-05-09T07:39:45.941Z,42.63
2024-05-09T07:51:32.752Z,41.45
2024-05-09T08:00:26.786Z,40.88
2024-05-09T08:10:37.638Z,40.67
2024-05-09T08:20:48.842Z,39.88
2024-05-09T08:30:52.974Z,39.41
2024-05-09T08:40:57.240Z,38.34
2024-05-09T08:51:04.743Z,38.22
2024-05-09T09:01:09.182Z,37.08
2024-05-09T09:11:13.332Z,36.18
2024-05-09T09:21:17.902Z,36.24
2024-05-09T09:31:22.264Z,36.14
2024-05-09T09:41:28.967Z,36.27
2024-05-09T09:51:37.279Z,35.58
2024-05-09T10:01:41.552Z,35.43
2024-05-09T10:11:51.831Z,34.89
2024-05-09T10:22:05.729Z,35.05
2024-05-09T10:32:13.602Z,34.02
2024-05-09T10:42:18.885Z,33.74
2024-05-09T10:52:23.313Z,33.46
2024-05-09T11:02:27.353Z,33.53
2024-05-09T11:12:31.726Z,33.49
2024-05-09T11:22:39.487Z,33.64
2024-05-09T11:32:43.362Z,33.12
2024-05-09T11:42:49.940Z,32.86
2024-05-09T11:52:55.593Z,32.77
2024-05-09T12:03:00.012Z,32.59
2024-05-09T12:13:06.025Z,32.44
2024-05-09T12:23:11.530Z,32.08
2024-05-09T12:33:15.542Z,31.10
2024-05-09T12:43:43.190Z,31.32
2024-05-09T12:53:47.137Z,31.50
2024-05-09T13:03:52.087Z,31.99
2024-05-09T13:13:56.482Z,32.29
2024-05-09T13:24:00.672Z,32.49
2024-05-09T13:34:08.608Z,32.81
2024-05-09T13:44:13.183Z,33.06
2024-05-09T13:54:18.727Z,32.90
2024-05-09T14:04:24.477Z,32.52
2024-05-09T14:14:28.807Z,32.36
2024-05-09T14:24:36.610Z,32.25
2024-05-09T14:34:40.626Z,32.58
2024-05-09T14:45:38.483Z,32.49
2024-05-09T14:55:43.711Z,32.91
2024-05-09T15:05:48.666Z,32.71
2024-05-09T15:15:56.602Z,33.00
2024-05-09T15:26:24.665Z,33.07
2024-05-09T15:36:28.848Z,33.47
2024-05-09T15:46:32.882Z,33.51
2024-05-09T15:56:36.741Z,33.60
2024-05-09T16:06:40.794Z,33.47
2024-05-09T16:16:47.437Z,33.94
2024-05-09T16:26:51.678Z,33.89
2024-05-09T16:36:55.876Z,33.88
2024-05-09T16:46:59.911Z,34.46
2024-05-09T16:57:08.265Z,34.73
2024-05-09T17:07:12.599Z,34.87
2024-05-09T17:17:17.067Z,35.17
2024-05-09T17:27:21.171Z,35.59
2024-05-09T17:37:52.666Z,35.92
2024-05-09T17:47:57.059Z,36.33
2024-05-09T17:58:01.534Z,36.76
2024-05-09T18:08:06.897Z,37.30
2024-05-09T18:18:11.776Z,38.11
2024-05-09T18:28:16.568Z,38.75
2024-05-09T18:38:24.900Z,39.27
2024-05-09T18:48:28.987Z,39.75
2024-05-09T18:58:33.386Z,40.54
2024-05-09T19:08:37.804Z,41.21
2024-05-09T19:18:42.283Z,42.16
2024-05-09T19:28:46.815Z,42.70
2024-05-09T19:38:51.619Z,43.83
2024-05-09T19:48:55.751Z,45.03
2024-05-09T19:59:00.247Z,45.72
2024-05-09T20:09:04.260Z,46.38
2024-05-09T20:19:08.399Z,47.09
2024-05-09T20:29:12.327Z,48.06
2024-05-09T20:39:17.948Z,48.79
2024-05-09T20:49:23.078Z,49.29
2024-05-09T20:59:27.253Z,49.79
2024-05-09T21:09:31.037Z,50.29
2024-05-09T21:19:35.355Z,50.97
2024-05-09T21:29:39.418Z,51.61
2024-05-09T21:39:43.488Z,52.11
2024-05-09T21:49:47.542Z,52.53
2024-05-09T21:59:51.399Z,52.94
2024-05-09T22:09:55.455Z,53.09
2024-05-09T22:19:59.647Z,53.48
2024-05-09T22:30:06.982Z,54.14
2024-05-09T22:40:20.457Z,54.38
2024-05-09T22:50:33.113Z,54.96
2024-05-09T23:00:38.110Z,55.26
2024-05-09T23:10:42.406Z,55.71
2024-05-09T23:20:46.203Z,56.04
2024-05-09T23:30:49.979Z,56.44
2024-05-09T23:40:53.924Z,56.68
2024-05-09T23:50:57.758Z,56.64
